createdAt,value
2023-01-04T00:01:33.870Z,2.78
2023-01-04T00:03:36.784Z,2.79
2023-01-04T00:05:39.601Z,2.77
2023-01-04T00:07:42.246Z,2.70
2023-01-04T00:09:44.875Z,2.64
2023-01-04T00:11:47.509Z,2.71
2023-01-04T00:13:52.489Z,2.74
2023-01-04T00:15:58.979Z,2.81
2023-01-04T00:18:03.793Z,2.84
2023-01-04T00:20:06.833Z,2.86
2023-01-04T00:22:09.516Z,2.89
2023-01-04T00:24:15.278Z,2.89
2023-01-04T00:26:20.077Z,2.93
2023-01-04T00:28:22.687Z,2.92
2023-01-04T00:30:25.331Z,2.96
2023-01-04T00:32:29.289Z,3.01
2023-01-04T00:34:31.971Z,2.99
2023-01-04T00:36:35.489Z,3.01
2023-01-04T00:38:39.319Z,3.08
2023-01-04T00:40:41.983Z,3.03
2023-01-04T00:42:44.629Z,3.10
2023-01-04T00:44:47.240Z,3.09
2023-01-04T00:46:50.039Z,3.08
2023-01-04T00:49:00.151Z,2.99
2023-01-04T00:51:03.528Z,2.91
2023-01-04T00:53:06.123Z,2.93
2023-01-04T00:55:09.610Z,2.98
2023-01-04T00:57:12.201Z,2.95
2023-01-04T00:59:17.606Z,2.97
2023-01-04T01:01:20.354Z,3.00
2023-01-04T01:03:23.233Z,3.14
2023-01-04T01:05:27.742Z,3.07
2023-01-04T01:07:30.358Z,3.10
2023-01-04T01:09:33.145Z,3.11
2023-01-04T01:11:38.236Z,3.08
2023-01-04T01:13:41.273Z,3.07
2023-01-04T01:15:44.032Z,3.12
2023-01-04T01:17:46.770Z,3.13
2023-01-04T01:19:49.473Z,3.15
2023-01-04T01:21:53.648Z,3.11
2023-01-04T01:23:56.977Z,3.03
2023-01-04T01:26:01.884Z,3.00
2023-01-04T01:28:04.712Z,2.97
2023-01-04T01:30:08.529Z,3.09
2023-01-04T01:32:11.265Z,3.03
2023-01-04T01:34:14.036Z,2.98
2023-01-04T01:36:18.173Z,2.98
2023-01-04T01:38:22.238Z,3.05
2023-01-04T01:40:24.944Z,3.10
2023-01-04T01:42:27.593Z,3.09
2023-01-04T01:45:10.841Z,3.06
2023-01-04T01:47:16.452Z,3.12
2023-01-04T01:49:25.793Z,3.06
2023-01-04T01:51:29.657Z,3.11
2023-01-04T01:53:36.683Z,3.03
2023-01-04T01:55:41.495Z,3.01
2023-01-04T01:57:45.363Z,2.93
2023-01-04T01:59:51.542Z,2.96
2023-01-04T02:01:54.264Z,2.92
2023-01-04T02:03:57.516Z,2.81
2023-01-04T02:06:03.697Z,2.70
2023-01-04T02:08:08.253Z,2.68
2023-01-04T02:10:12.992Z,2.62
2023-01-04T02:12:15.927Z,2.59
2023-01-04T02:14:28.857Z,2.65
2023-01-04T02:16:46.442Z,2.61
2023-01-04T02:18:58.978Z,2.63
2023-01-04T02:21:07.667Z,2.65
2023-01-04T02:23:54.248Z,2.56
2023-01-04T02:26:22.634Z,2.61
2023-01-04T02:28:39.108Z,2.54
2023-01-04T02:31:08.880Z,2.61
2023-01-04T02:33:30.605Z,2.55
2023-01-04T02:35:42.432Z,2.50
2023-01-04T02:37:51.746Z,2.51
2023-01-04T02:40:00.231Z,2.47
2023-01-04T02:42:14.088Z,2.52
2023-01-04T02:44:37.190Z,2.41
2023-01-04T02:46:46.301Z,2.49
2023-01-04T02:49:07.046Z,2.41
2023-01-04T02:51:28.481Z,2.42
2023-01-04T02:53:35.577Z,2.44
2023-01-04T02:55:49.019Z,2.49
2023-01-04T02:58:01.236Z,2.59
2023-01-04T03:00:25.500Z,2.64
2023-01-04T03:03:11.096Z,2.74
2023-01-04T03:05:53.107Z,2.74
2023-01-04T03:08:02.311Z,2.78
2023-01-04T03:10:10.700Z,2.89
2023-01-04T03:12:34.359Z,2.81
2023-01-04T03:14:40.549Z,3.00
2023-01-04T03:16:45.909Z,2.97
2023-01-04T03:18:54.079Z,3.04
2023-01-04T03:20:59.638Z,3.10
2023-01-04T03:23:23.137Z,3.14
2023-01-04T03:25:49.939Z,3.09
2023-01-04T03:28:11.737Z,3.14
2023-01-04T03:30:34.549Z,3.19
2023-01-04T03:33:05.629Z,3.13
2023-01-04T03:35:28.212Z,3.04
2023-01-04T03:37:35.114Z,2.99
2023-01-04T03:40:05.758Z,2.91
2023-01-04T03:42:34.223Z,2.98
2023-01-04T03:45:09.831Z,2.99
2023-01-04T03:47:37.124Z,2.95
2023-01-04T03:49:44.356Z,2.94
2023-01-04T03:51:53.107Z,3.00
2023-01-04T03:54:00.368Z,2.92
2023-01-04T03:56:04.171Z,2.86
2023-01-04T03:58:06.997Z,2.83
2023-01-04T04:00:12.721Z,2.90
2023-01-04T04:02:19.038Z,2.86
2023-01-04T04:04:39.448Z,2.82
2023-01-04T04:06:59.807Z,2.79
2023-01-04T04:09:04.936Z,2.87
2023-01-04T04:11:21.484Z,2.97
2023-01-04T04:13:25.049Z,3.11
2023-01-04T04:15:27.671Z,3.16
2023-01-04T04:17:30.276Z,3.24
2023-01-04T04:19:32.874Z,3.30
2023-01-04T04:21:35.534Z,3.33
2023-01-04T04:23:38.194Z,3.36
2023-01-04T04:25:42.234Z,3.41
2023-01-04T04:27:44.925Z,3.42
2023-01-04T04:29:47.614Z,3.38
2023-01-04T04:31:50.458Z,3.38
2023-01-04T04:33:53.112Z,3.47
2023-01-04T04:35:56.393Z,3.56
2023-01-04T04:37:58.997Z,3.62
2023-01-04T04:40:01.753Z,3.61
2023-01-04T04:42:04.870Z,3.63
2023-01-04T04:44:08.139Z,3.61
2023-01-04T04:46:10.868Z,3.60
2023-01-04T04:48:13.522Z,3.65
2023-01-04T04:50:16.352Z,3.60
2023-01-04T04:52:19.041Z,3.64
2023-01-04T04:54:22.367Z,3.62
2023-01-04T04:56:25.023Z,3.67
2023-01-04T04:58:29.053Z,3.70
2023-01-04T05:00:31.812Z,3.78
2023-01-04T05:02:34.554Z,3.87
2023-01-04T05:04:37.380Z,3.86
2023-01-04T05:06:39.960Z,3.89
2023-01-04T05:08:42.668Z,4.03
2023-01-04T05:10:45.364Z,4.04
2023-01-04T05:13:01.964Z,4.10
2023-01-04T05:15:06.810Z,4.09
2023-01-04T05:17:09.466Z,4.12
2023-01-04T05:19:12.089Z,4.08
2023-01-04T05:21:19.942Z,4.08
2023-01-04T05:23:23.041Z,4.08
2023-01-04T05:25:25.993Z,4.04
2023-01-04T05:27:28.613Z,4.11
2023-01-04T05:29:49.017Z,4.18
2023-01-04T05:31:53.016Z,4.27
2023-01-04T05:33:55.684Z,4.35
2023-01-04T05:35:59.936Z,4.34
2023-01-04T05:38:02.574Z,4.39
2023-01-04T05:40:05.923Z,4.40
2023-01-04T05:42:28.192Z,4.48
2023-01-04T05:44:31.058Z,4.41
2023-01-04T05:46:33.779Z,4.47
2023-01-04T05:48:37.748Z,4.49
2023-01-04T05:50:40.327Z,4.56
2023-01-04T05:52:42.953Z,4.63
2023-01-04T05:54:45.670Z,4.62
2023-01-04T05:56:48.239Z,4.67
2023-01-04T05:58:50.813Z,4.63
2023-01-04T06:00:53.610Z,4.65
2023-01-04T06:02:57.187Z,4.59
2023-01-04T06:05:01.373Z,4.58
2023-01-04T06:07:04.021Z,4.57
2023-01-04T06:09:06.702Z,4.62
2023-01-04T06:11:09.312Z,4.68
2023-01-04T06:13:11.935Z,4.73
2023-01-04T06:15:14.828Z,4.76
2023-01-04T06:17:17.624Z,4.78
2023-01-04T06:19:20.342Z,4.80
2023-01-04T06:21:25.372Z,4.91
2023-01-04T06:23:27.981Z,4.92
2023-01-04T06:25:30.595Z,4.89
2023-01-04T06:27:33.243Z,4.92
2023-01-04T06:29:35.831Z,4.90
2023-01-04T06:31:38.414Z,4.96
2023-01-04T06:33:41.105Z,4.97
2023-01-04T06:35:43.778Z,4.97
2023-01-04T06:37:47.777Z,4.98
2023-01-04T06:39:50.387Z,4.98
2023-01-04T06:41:53.006Z,5.00
2023-01-04T06:43:55.693Z,5.00
2023-01-04T06:45:58.465Z,5.03
2023-01-04T06:48:05.787Z,5.01
2023-01-04T06:50:12.509Z,5.04
2023-01-04T06:52:15.121Z,5.06
2023-01-04T06:54:19.105Z,5.08
2023-01-04T06:56:21.800Z,5.12
2023-01-04T06:58:24.523Z,5.08
2023-01-04T07:00:27.750Z,5.09
2023-01-04T07:02:30.483Z,5.15
2023-01-04T07:04:33.280Z,5.14
2023-01-04T07:06:36.009Z,5.14
2023-01-04T07:08:38.645Z,5.14
2023-01-04T07:10:43.031Z,5.21
2023-01-04T07:12:45.616Z,5.24
2023-01-04T07:14:48.279Z,5.27
2023-01-04T07:16:50.973Z,5.26
2023-01-04T07:18:53.653Z,5.28
2023-01-04T07:20:56.687Z,5.25
2023-01-04T07:22:59.307Z,5.27
2023-01-04T07:25:01.925Z,5.29
2023-01-04T07:27:05.971Z,5.29
2023-01-04T07:29:17.033Z,5.33
2023-01-04T07:31:20.093Z,5.31
2023-01-04T07:33:22.821Z,5.36
2023-01-04T07:35:25.944Z,5.36
2023-01-04T07:37:28.799Z,5.40
2023-01-04T07:39:31.409Z,5.31
2023-01-04T07:41:34.127Z,5.27
2023-01-04T07:43:38.114Z,5.20
2023-01-04T07:45:40.726Z,5.20
2023-01-04T07:47:43.402Z,5.22
2023-01-04T07:49:48.674Z,5.11
2023-01-04T07:51:51.401Z,5.11
2023-01-04T07:53:54.195Z,5.11
2023-01-04T07:55:58.828Z,5.11
2023-01-04T07:58:01.417Z,5.05
2023-01-04T08:00:06.198Z,5.09
2023-01-04T08:02:11.726Z,5.10
2023-01-04T08:04:15.660Z,5.17
2023-01-04T08:06:19.040Z,5.23
2023-01-04T08:08:21.743Z,5.16
2023-01-04T08:10:24.374Z,5.14
2023-01-04T08:12:27.003Z,5.18
2023-01-04T08:14:29.631Z,5.29
2023-01-04T08:16:35.042Z,5.23
2023-01-04T08:18:38.198Z,5.22
2023-01-04T08:20:40.800Z,5.30
2023-01-04T08:22:43.470Z,5.35
2023-01-04T08:24:46.149Z,5.47
2023-01-04T08:26:49.078Z,5.34
2023-01-04T08:28:52.405Z,5.38
2023-01-04T08:30:55.086Z,5.41
2023-01-04T08:32:59.236Z,5.37
2023-01-04T08:35:01.818Z,5.36
2023-01-04T08:37:04.491Z,5.35
2023-01-04T08:39:07.698Z,5.44
2023-01-04T08:41:46.714Z,5.40
2023-01-04T08:43:33.023Z,5.45
2023-01-04T08:45:35.655Z,5.41
2023-01-04T08:47:38.324Z,5.57
2023-01-04T08:49:42.333Z,5.50
2023-01-04T08:51:45.480Z,5.55
2023-01-04T08:53:48.071Z,5.63
2023-01-04T08:55:51.982Z,5.59
2023-01-04T08:57:54.633Z,5.67
2023-01-04T08:59:57.300Z,5.81
2023-01-04T09:02:05.179Z,5.76
2023-01-04T09:04:08.877Z,5.92
2023-01-04T09:06:15.463Z,5.88
2023-01-04T09:08:18.062Z,5.90
2023-01-04T09:10:20.729Z,5.98
2023-01-04T09:12:23.430Z,6.08
2023-01-04T09:14:26.095Z,6.03
2023-01-04T09:16:28.900Z,6.04
2023-01-04T09:18:33.168Z,6.12
2023-01-04T09:20:36.088Z,6.16
2023-01-04T09:22:40.085Z,6.17
2023-01-04T09:24:42.733Z,6.30
2023-01-04T09:26:47.297Z,6.25
2023-01-04T09:28:50.770Z,6.34
2023-01-04T09:30:53.528Z,6.39
2023-01-04T09:32:56.177Z,6.35
2023-01-04T09:34:58.888Z,6.44
2023-01-04T09:37:01.541Z,6.48
2023-01-04T09:39:05.921Z,6.48
2023-01-04T09:41:15.923Z,6.54
2023-01-04T09:43:23.091Z,6.67
2023-01-04T09:45:28.877Z,6.67
2023-01-04T09:47:38.378Z,6.75
2023-01-04T09:49:46.622Z,6.73
2023-01-04T09:51:56.868Z,6.73
2023-01-04T09:54:08.142Z,6.70
2023-01-04T09:56:18.290Z,6.86
2023-01-04T09:58:28.209Z,6.82
2023-01-04T10:00:41.830Z,6.90
2023-01-04T10:02:50.721Z,6.86
2023-01-04T10:04:53.560Z,6.97
2023-01-04T10:07:02.739Z,7.00
2023-01-04T10:09:14.509Z,6.97
2023-01-04T10:11:37.048Z,7.03
2023-01-04T10:13:54.296Z,7.01
2023-01-04T10:16:05.159Z,7.00
2023-01-04T10:21:31.383Z,7.08
2023-01-04T10:23:46.043Z,7.01
2023-01-04T10:25:56.781Z,7.07
2023-01-04T10:28:15.814Z,7.08
2023-01-04T10:30:30.759Z,7.09
2023-01-04T10:32:38.516Z,7.06
2023-01-04T10:34:43.249Z,7.09
2023-01-04T10:36:48.391Z,7.14
2023-01-04T10:38:58.136Z,7.13
2023-01-04T10:41:10.610Z,7.20
2023-01-04T10:43:24.472Z,7.25
2023-01-04T10:45:36.867Z,7.20
2023-01-04T10:47:47.534Z,7.31
2023-01-04T10:49:54.846Z,7.29
2023-01-04T10:52:01.158Z,7.31
2023-01-04T10:54:12.446Z,7.38
2023-01-04T10:56:27.145Z,7.38
2023-01-04T10:58:38.671Z,7.46
2023-01-04T11:00:46.513Z,7.57
2023-01-04T11:02:56.036Z,7.45
2023-01-04T11:05:03.619Z,7.48
2023-01-04T11:07:11.789Z,7.57
2023-01-04T11:09:25.140Z,7.57
2023-01-04T11:11:33.592Z,7.59
2023-01-04T11:13:37.024Z,7.61
2023-01-04T11:15:42.662Z,7.67
2023-01-04T11:17:46.570Z,7.70
2023-01-04T11:19:49.289Z,7.71
2023-01-04T11:21:58.860Z,7.76
2023-01-04T11:24:30.014Z,7.72
2023-01-04T11:26:38.785Z,7.79
2023-01-04T11:28:46.891Z,7.79
2023-01-04T11:30:59.822Z,7.81
2023-01-04T11:33:06.870Z,7.84
2023-01-04T11:35:09.871Z,7.81
2023-01-04T11:37:26.843Z,7.77
2023-01-04T11:39:29.436Z,7.85
2023-01-04T11:41:33.456Z,7.87
2023-01-04T11:43:38.560Z,7.91
2023-01-04T11:45:41.227Z,7.93
2023-01-04T11:47:49.926Z,7.99
2023-01-04T11:49:53.362Z,7.98
2023-01-04T11:51:56.023Z,7.96
2023-01-04T11:54:00.502Z,8.01
2023-01-04T11:56:24.783Z,7.99
2023-01-04T11:58:28.929Z,8.01
2023-01-04T12:00:31.564Z,8.00
2023-01-04T12:03:00.220Z,8.05
2023-01-04T12:04:57.039Z,8.11
2023-01-04T12:07:03.822Z,8.11
2023-01-04T12:09:06.658Z,8.16
2023-01-04T12:11:20.070Z,8.16
2023-01-04T12:13:22.906Z,8.19
2023-01-04T12:15:35.617Z,8.16
2023-01-04T12:17:48.033Z,8.17
2023-01-04T12:19:54.460Z,8.21
2023-01-04T12:21:59.450Z,8.22
2023-01-04T12:24:02.636Z,8.21
2023-01-04T12:26:05.834Z,8.22
2023-01-04T12:28:34.115Z,8.21
2023-01-04T12:30:41.929Z,8.25
2023-01-04T12:32:47.094Z,8.28
2023-01-04T12:34:50.557Z,8.32
2023-01-04T12:37:04.947Z,8.38
2023-01-04T12:39:41.885Z,8.38
2023-01-04T12:42:24.661Z,8.43
2023-01-04T12:45:05.289Z,8.48
2023-01-04T12:47:58.720Z,8.55
2023-01-04T12:50:03.904Z,8.64
2023-01-04T12:55:19.300Z,8.85
2023-01-04T12:57:25.790Z,8.89
2023-01-04T12:59:36.486Z,8.87
2023-01-04T13:01:39.596Z,8.87
2023-01-04T13:03:49.087Z,8.93
2023-01-04T13:05:57.523Z,8.94
2023-01-04T13:08:01.898Z,9.00
2023-01-04T13:10:21.754Z,9.03
2023-01-04T13:12:59.413Z,9.00
2023-01-04T13:15:06.991Z,9.05
2023-01-04T13:17:16.517Z,9.06
2023-01-04T13:19:23.580Z,9.05
2023-01-04T13:21:30.052Z,9.01
2023-01-04T13:23:32.703Z,9.04
2023-01-04T13:25:36.124Z,9.05
2023-01-04T13:27:38.812Z,9.11
2023-01-04T13:29:42.368Z,9.15
2023-01-04T13:31:57.893Z,9.13
2023-01-04T13:34:00.710Z,9.15
2023-01-04T13:36:11.676Z,9.24
2023-01-04T13:38:16.136Z,9.22
2023-01-04T13:40:25.633Z,9.24
2023-01-04T13:42:30.813Z,9.21
2023-01-04T13:47:23.407Z,9.29
2023-01-04T13:49:26.245Z,9.29
2023-01-04T13:51:37.554Z,9.43
2023-01-04T13:53:40.920Z,9.43
2023-01-04T13:55:43.815Z,9.43
2023-01-04T13:57:54.372Z,9.46
2023-01-04T13:59:57.069Z,9.45
2023-01-04T14:01:59.934Z,9.49
2023-01-04T14:04:04.614Z,9.49
2023-01-04T14:06:17.568Z,9.51
2023-01-04T14:08:31.203Z,9.53
2023-01-04T14:10:33.912Z,9.57
2023-01-04T14:12:36.716Z,9.49
2023-01-04T14:14:47.230Z,9.56
2023-01-04T14:16:51.741Z,9.54
2023-01-04T14:18:54.353Z,9.53
2023-01-04T14:20:57.253Z,9.52
2023-01-04T14:23:00.422Z,9.52
2023-01-04T14:25:43.540Z,9.51
2023-01-04T14:27:46.171Z,9.52
2023-01-04T14:29:49.297Z,9.55
2023-01-04T14:31:52.338Z,9.53
2023-01-04T14:33:55.831Z,9.53
2023-01-04T14:36:12.080Z,9.50
2023-01-04T14:38:18.561Z,9.53
2023-01-04T14:40:27.171Z,9.52
2023-01-04T14:42:32.276Z,9.57
2023-01-04T14:44:36.211Z,9.57
2023-01-04T14:46:41.795Z,9.55
2023-01-04T14:48:44.480Z,9.51
2023-01-04T14:50:47.099Z,9.47
2023-01-04T14:52:52.263Z,9.49
2023-01-04T14:54:54.913Z,9.48
2023-01-04T14:57:00.143Z,9.47
2023-01-04T14:59:02.811Z,9.48
2023-01-04T15:01:05.499Z,9.53
2023-01-04T15:03:09.624Z,9.48
2023-01-04T15:05:12.663Z,9.48
2023-01-04T15:07:35.367Z,9.49
2023-01-04T15:09:38.021Z,9.51
2023-01-04T15:11:40.642Z,9.52
2023-01-04T15:13:44.819Z,9.46
2023-01-04T15:15:47.492Z,9.44
2023-01-04T15:17:50.216Z,9.50
2023-01-04T15:19:52.783Z,9.43
2023-01-04T15:21:55.366Z,9.41
2023-01-04T15:23:58.095Z,9.40
2023-01-04T15:26:01.799Z,9.38
2023-01-04T15:28:04.809Z,9.37
2023-01-04T15:30:10.759Z,9.34
2023-01-04T15:32:13.491Z,9.32
2023-01-04T15:34:16.140Z,9.31
2023-01-04T15:36:23.711Z,9.26
2023-01-04T15:38:26.859Z,9.27
2023-01-04T15:40:29.594Z,9.20
2023-01-04T15:42:49.845Z,9.23
2023-01-04T15:44:52.488Z,9.20
2023-01-04T15:46:59.430Z,9.16
2023-01-04T15:49:02.325Z,9.20
2023-01-04T15:51:07.717Z,9.22
2023-01-04T15:53:10.975Z,9.23
2023-01-04T15:55:14.435Z,9.22
2023-01-04T15:57:17.155Z,9.24
2023-01-04T15:59:19.832Z,9.29
2023-01-04T16:01:23.104Z,9.32
2023-01-04T16:03:27.571Z,9.27
2023-01-04T16:05:30.236Z,9.28
2023-01-04T16:07:36.406Z,9.29
2023-01-04T16:09:39.347Z,9.37
2023-01-04T16:12:02.150Z,9.35
2023-01-04T16:14:04.853Z,9.40
2023-01-04T16:16:08.341Z,9.42
2023-01-04T16:18:10.920Z,9.44
2023-01-04T16:20:17.886Z,9.43
2023-01-04T16:22:20.505Z,9.42
2023-01-04T16:25:00.115Z,9.37
2023-01-04T16:26:45.760Z,9.45
2023-01-04T16:28:51.070Z,9.49
2023-01-04T16:30:55.877Z,9.57
2023-01-04T16:32:58.533Z,9.50
2023-01-04T16:35:01.161Z,9.56
2023-01-04T16:37:05.150Z,9.57
2023-01-04T16:39:08.582Z,9.58
2023-01-04T16:41:13.378Z,9.63
2023-01-04T16:43:15.995Z,9.63
2023-01-04T16:45:18.966Z,9.70
2023-01-04T16:47:21.668Z,9.73
2023-01-04T16:49:25.067Z,9.72
2023-01-04T16:51:29.695Z,9.77
2023-01-04T16:53:33.733Z,9.75
2023-01-04T16:55:36.352Z,9.85
2023-01-04T16:57:38.969Z,9.79
2023-01-04T16:59:41.687Z,9.72
2023-01-04T17:01:51.100Z,9.78
2023-01-04T17:03:58.754Z,9.78
2023-01-04T17:06:01.499Z,9.77
2023-01-04T17:08:04.239Z,9.79
2023-01-04T17:10:09.248Z,9.80
2023-01-04T17:12:45.572Z,9.85
2023-01-04T17:14:34.486Z,9.85
2023-01-04T17:16:37.300Z,9.87
2023-01-04T17:18:40.232Z,9.88
2023-01-04T17:20:42.872Z,9.94
2023-01-04T17:22:45.717Z,9.92
2023-01-04T17:24:48.361Z,9.93
2023-01-04T17:26:52.346Z,9.91
2023-01-04T17:28:56.648Z,9.92
2023-01-04T17:30:59.485Z,9.88
2023-01-04T17:33:02.079Z,9.92
2023-01-04T17:35:05.173Z,9.90
2023-01-04T17:37:07.794Z,9.86
2023-01-04T17:39:10.522Z,9.88
2023-01-04T17:41:15.545Z,9.92
2023-01-04T17:43:19.508Z,9.87
2023-01-04T17:45:22.583Z,9.89
2023-01-04T17:47:25.596Z,9.91
2023-01-04T17:49:31.988Z,9.94
2023-01-04T17:51:36.993Z,9.97
2023-01-04T17:53:40.862Z,10.03
2023-01-04T17:55:43.441Z,9.98
2023-01-04T17:57:46.140Z,9.97
2023-01-04T17:59:50.192Z,9.99
2023-01-04T18:01:53.007Z,9.95
2023-01-04T18:03:57.522Z,9.93
2023-01-04T18:06:24.416Z,9.88
2023-01-04T18:08:23.063Z,9.86
2023-01-04T18:10:40.836Z,9.93
2023-01-04T18:12:48.291Z,9.90
2023-01-04T18:14:52.353Z,9.91
2023-01-04T18:16:58.667Z,9.88
2023-01-04T18:19:02.073Z,9.93
2023-01-04T18:21:27.109Z,9.93
2023-01-04T18:23:30.630Z,9.87
2023-01-04T18:25:34.308Z,9.79
2023-01-04T18:27:36.980Z,9.82
2023-01-04T18:29:39.602Z,9.83
2023-01-04T18:31:43.600Z,9.86
2023-01-04T18:33:52.668Z,9.84
2023-01-04T18:35:55.286Z,9.85
2023-01-04T18:37:57.927Z,9.85
2023-01-04T18:40:01.251Z,9.82
2023-01-04T18:42:04.026Z,9.84
2023-01-04T18:44:31.629Z,9.80
2023-01-04T18:46:29.526Z,9.74
2023-01-04T18:48:33.486Z,9.73
2023-01-04T18:50:36.237Z,9.78
2023-01-04T18:52:38.830Z,9.73
2023-01-04T18:54:41.634Z,9.72
2023-01-04T18:56:44.253Z,9.72
2023-01-04T18:58:48.381Z,9.69
2023-01-04T19:00:59.183Z,9.67
2023-01-04T19:03:01.911Z,9.69
2023-01-04T19:05:07.607Z,9.71
2023-01-04T19:07:10.322Z,9.67
2023-01-04T19:09:12.934Z,9.72
2023-01-04T19:11:16.455Z,9.68
2023-01-04T19:13:19.072Z,9.74
2023-01-04T19:15:22.664Z,9.70
2023-01-04T19:17:26.002Z,9.66
2023-01-04T19:19:28.643Z,9.74
2023-01-04T19:21:32.767Z,9.76
2023-01-04T19:23:37.173Z,9.75
2023-01-04T19:25:41.025Z,9.70
2023-01-04T19:27:43.723Z,9.78
2023-01-04T19:29:46.399Z,9.76
2023-01-04T19:31:49.200Z,9.73
2023-01-04T19:33:51.846Z,9.77
2023-01-04T19:35:54.480Z,9.72
2023-01-04T19:37:58.765Z,9.67
2023-01-04T19:40:01.376Z,9.69
2023-01-04T19:42:03.933Z,9.68
2023-01-04T19:44:08.152Z,9.68
2023-01-04T19:46:12.538Z,9.70
2023-01-04T19:48:15.207Z,9.64
2023-01-04T19:50:18.367Z,9.61
2023-01-04T19:52:21.104Z,9.64
2023-01-04T19:54:25.970Z,9.64
2023-01-04T19:56:28.749Z,9.64
2023-01-04T19:58:31.973Z,9.63
2023-01-04T20:00:34.794Z,9.61
2023-01-04T20:02:37.610Z,9.64
2023-01-04T20:04:40.400Z,9.62
2023-01-04T20:06:43.003Z,9.59
2023-01-04T20:08:45.743Z,9.63
2023-01-04T20:10:55.415Z,9.63
2023-01-04T20:12:58.004Z,9.53
2023-01-04T20:15:00.616Z,9.48
2023-01-04T20:17:03.381Z,9.49
2023-01-04T20:19:06.108Z,9.42
2023-01-04T20:21:10.804Z,9.38
2023-01-04T20:23:15.049Z,9.41
2023-01-04T20:25:17.939Z,9.33
2023-01-04T20:27:22.022Z,9.26
2023-01-04T20:29:24.957Z,9.30
2023-01-04T20:31:27.693Z,9.20
2023-01-04T20:33:30.545Z,9.24
2023-01-04T20:35:33.372Z,9.28
2023-01-04T20:37:36.019Z,9.27
2023-01-04T20:39:38.888Z,9.30
2023-01-04T20:42:03.642Z,9.29
2023-01-04T20:44:18.649Z,9.27
2023-01-04T20:46:23.386Z,9.21
2023-01-04T20:48:26.307Z,9.21
2023-01-04T21:00:29.734Z,9.09
2023-01-04T21:02:37.903Z,9.11
2023-01-04T21:04:45.932Z,9.09
2023-01-04T21:06:48.545Z,9.06
2023-01-04T21:08:54.462Z,9.09
2023-01-04T21:10:57.725Z,9.09
2023-01-04T21:13:00.419Z,9.17
2023-01-04T21:15:03.086Z,9.12
2023-01-04T21:17:07.134Z,9.14
2023-01-04T21:19:10.222Z,9.13
2023-01-04T21:21:14.832Z,9.18
2023-01-04T21:23:19.182Z,9.15
2023-01-04T21:25:21.852Z,9.15
2023-01-04T21:27:24.444Z,9.16
2023-01-04T21:29:27.770Z,9.18
2023-01-04T21:31:30.442Z,9.20
2023-01-04T21:33:34.461Z,9.20
2023-01-04T21:35:37.921Z,9.20
2023-01-04T21:37:40.706Z,9.20
2023-01-04T21:39:43.736Z,9.22
2023-01-04T21:41:48.179Z,9.23
2023-01-04T21:43:51.632Z,9.25
2023-01-04T21:45:54.241Z,9.25
2023-01-04T21:47:58.037Z,9.19
2023-01-04T21:50:02.133Z,9.18
2023-01-04T21:52:04.770Z,9.12
2023-01-04T21:54:07.366Z,9.15
2023-01-04T21:56:11.911Z,9.13
2023-01-04T21:58:14.566Z,9.11
2023-01-04T22:00:17.527Z,9.07
2023-01-04T22:02:20.987Z,9.09
2023-01-04T22:04:23.772Z,9.12
2023-01-04T22:06:27.950Z,9.10
2023-01-04T22:08:30.796Z,9.11
2023-01-04T22:10:33.498Z,9.14
2023-01-04T22:12:36.188Z,9.11
2023-01-04T22:14:38.851Z,9.14
2023-01-04T22:16:41.542Z,9.12
2023-01-04T22:18:47.204Z,9.18
2023-01-04T22:20:50.065Z,9.23
2023-01-04T22:22:54.074Z,9.25
2023-01-04T22:24:57.451Z,9.28
2023-01-04T22:27:00.107Z,9.28
2023-01-04T22:29:02.829Z,9.29
2023-01-04T22:31:07.128Z,9.25
2023-01-04T22:33:09.902Z,9.30
2023-01-04T22:35:12.602Z,9.29
2023-01-04T22:37:15.226Z,9.24
2023-01-04T22:39:19.266Z,9.25
2023-01-04T22:41:23.826Z,9.28
2023-01-04T22:43:26.467Z,9.30
2023-01-04T22:45:29.095Z,9.28
2023-01-04T22:47:32.538Z,9.29
2023-01-04T22:49:35.161Z,9.30
2023-01-04T22:51:38.321Z,9.36
2023-01-04T22:53:41.068Z,9.41
2023-01-04T22:56:17.542Z,9.35
2023-01-04T22:58:07.684Z,9.38
2023-01-04T23:00:12.249Z,9.35
2023-01-04T23:02:14.832Z,9.32
2023-01-04T23:04:18.294Z,9.36
2023-01-04T23:06:22.385Z,9.34
2023-01-04T23:08:25.120Z,9.35
2023-01-04T23:10:27.701Z,9.32
2023-01-04T23:12:31.758Z,9.40
2023-01-04T23:14:34.391Z,9.42
2023-01-04T23:16:37.172Z,9.43
2023-01-04T23:18:40.542Z,9.46
2023-01-04T23:20:43.169Z,9.48
2023-01-04T23:22:45.741Z,9.49
2023-01-04T23:24:49.836Z,9.49
2023-01-04T23:26:52.508Z,9.48
2023-01-04T23:28:57.151Z,9.51
2023-01-04T23:31:02.812Z,9.51
2023-01-04T23:33:05.475Z,9.47
2023-01-04T23:35:09.561Z,9.54
2023-01-04T23:37:12.144Z,9.56
2023-01-04T23:39:16.929Z,9.59
2023-01-04T23:41:20.021Z,9.58
2023-01-04T23:43:22.653Z,9.60
2023-01-04T23:45:26.808Z,9.64
2023-01-04T23:47:29.447Z,9.64
2023-01-04T23:49:34.405Z,9.68
2023-01-04T23:51:37.118Z,9.75
2023-01-04T23:53:39.796Z,9.72
2023-01-04T23:55:42.460Z,9.71
2023-01-04T23:57:45.078Z,9.76
2023-01-04T23:59:47.760Z,9.80
